Terminal Aerodrome Forecast
Issued by NWS Billings, MT

Home | Current Version | Previous Version | Graphics & Text | Print | Product List | Glossary On
Versions: 1 2 3 4 5 6 7 8 9 10 11 12 13 14 15 16 17 18 19 20 21 22 23 24 25 26 27 28 29 30 31 32
580
FTUS45 KBYZ 042325
TAFMLS
TAF
KMLS 042325Z 0500/0524 26008KT P6SM SCT100
     FM050300 26011KT P6SM VCSH SCT030 BKN050
     FM050600 31015G25KT P6SM VCSH BKN050
     FM051200 32016G26KT P6SM VCSH BKN025
     FM052100 30016G26KT P6SM SCT040 BKN100=

USA.gov is the U.S. government's official web portal to all federal, state and local government web resources and services.